Glenrock, WY (82637)

2:00 AM MDT on July 30, 2014 (GMT -0600)
WYDOT (MKDRC) Elev 5064 ft | 42.84 °N, 105.86 °W | Change Station

Current weather conditions updated 3 days ago

Thunderstorm
Thunderstorm
58 °F
Feels Like 58 °F
N
5
Wind Variable Wind from ESE
Gusts 7 mph

Today is forecast to be Cooler than yesterday.

Today
High -- | Low -- °F
--% Chance of Precip.
Yesterday
High -- | Low -- °F
Precip. -- in
5:52 AM 8:25 PM
Waxing Crescent, 10% visible
Pressure 30.17 in
Visibility 10.0 miles
Clouds Clear
Dew Point 54 °F
Humidity 81%
Rainfall -999.00 in
Snow Depth Not available.
UV 0 out of 12
Pollen 4.20 out of 12
Air Quality Not available.
Flu Activity Not available.
METAR KDGW 300753Z AUTO 05003KT 10SM CLR 14/12 A3032 RMK AO2 SLP216 T01390122 $

More Conditions Fewer Conditions

Pressure 30.17 in
Visibility 10.0 miles
Clouds Clear
Dew Point 54 °F
Humidity 81%
Rainfall -999.00 in
Snow Depth Not available.
UV 0 out of 12
Pollen 4.20 out of 12
Air Quality Not available.
Flu Activity Not available.
METAR KDGW 300753Z AUTO 05003KT 10SM CLR 14/12 A3032 RMK AO2 SLP216 T01390122 $

More Conditions Fewer Conditions

10-Day Weather Forecast

Almanac

Astronomy

Jul. 30, 2014 Rise Set
Actual Time 5:52 AM MDT 8:25 PM MDT
Civil Twilight 5:20 AM MDT 8:58 PM MDT
Nautical Twilight 4:39 AM MDT 9:38 PM MDT
Astronomical Twilight 3:54 AM MDT 10:23 PM MDT
Moon 9:32 AM MDT 10:02 PM MDT
Length of Visible Light 15h 37m
Length of Day
14h 33m
Tomorrow will be 2m 9s shorter.
Waxing Crescent, 10% of the Moon is Illuminated
Today
Waxing Crescent
Aug 3
First Quarter
Aug 10
Full
Aug 17
Last Quarter
Aug 25
New

Today's Extremes

State Highs State Lows

Community

WunderPhotos

Upload Photos

1,739,022 photos uploaded!

WunderBlogs® & News

By Dr. Jeff Masters
Director of Meteorology, Weather Underground
By Kari Strenfel
Meteorologist, Weather Underground
By Christopher C. Burt
Weather Historian, Weather Underground
July 29, 2014
July 29, 2014
July 29, 2014

Nearby

Snow Depth

Station Depth Elevation
Reno Hill 0 in 8500 ft
Casper Mountain 1 in 7850 ft
Sand Lake 0 in 10050 ft
Brooklyn Lake 0 in 10220 ft
South Brush Creek 0 in 8440 ft

Earthquake Activity

City Distance Mag. Time & Date
No recent earthquake activity has been reported nearby.
Minimum magnitude displayed is 2.5.

Coastal Water Temperatures

Place Temperature
No Stations Reporting

Nearby Weather Stations

Station Location Temp. Dew Point Humidity Wind Precip. Elev Updated Type
HADS NORTH PLATTE RIVER NEAR GLEN ROC WY, Glenrock, WY 58 °F - - North  at  - 0.00 in / hr 4948 ft 12:30 AM MDT MADIS
North of Rolling Hills WY, Glenrock, WY 53.5 °F 51 °F 91% ENE  at  0.0 mph 0.00 in / hr 5421 ft 2:00 AM MDT Rapid Fire
Douglas, Douglas, WY 55.2 °F 53 °F 91% North  at  0.0 mph 0.00 in / hr 6096 ft 2:00 AM MDT Rapid Fire
Converse County Flyers, Douglas, WY 57.6 °F 57 °F 99% NE  at  2.2 mph 0.00 in / hr 4839 ft 2:00 AM MDT Normal

Show More Stations Show Fewer Stations